createdAt,value
2018-10-18T00:01:17.965Z,957.19
2018-10-18T00:03:44.310Z,957.12
2018-10-18T00:06:10.696Z,957.15
2018-10-18T00:08:37.001Z,957.13
2018-10-18T00:11:03.311Z,957.15
2018-10-18T00:13:29.660Z,957.05
2018-10-18T00:15:55.962Z,957.03
2018-10-18T00:18:22.313Z,956.96
2018-10-18T00:20:48.647Z,956.98
2018-10-18T00:23:15.009Z,956.97
2018-10-18T00:25:41.304Z,957.01
2018-10-18T00:28:07.627Z,956.97
2018-10-18T00:30:33.944Z,956.96
2018-10-18T00:33:00.251Z,956.95
2018-10-18T00:35:26.556Z,956.99
2018-10-18T00:37:52.931Z,957.00
2018-10-18T00:40:19.189Z,957.01
2018-10-18T00:42:45.488Z,956.95
2018-10-18T00:45:11.823Z,956.97
2018-10-18T00:47:38.170Z,956.86
2018-10-18T00:50:04.524Z,956.88
2018-10-18T00:52:30.838Z,956.87
2018-10-18T00:54:57.141Z,956.82
2018-10-18T00:57:23.479Z,956.81
2018-10-18T00:59:49.779Z,956.82
2018-10-18T01:02:16.167Z,956.80
2018-10-18T01:04:42.417Z,956.82
2018-10-18T01:07:08.730Z,956.80
2018-10-18T01:09:35.069Z,956.75
2018-10-18T01:12:01.394Z,956.84
2018-10-18T01:14:27.673Z,956.79
2018-10-18T01:16:54.004Z,956.76
2018-10-18T01:19:20.371Z,956.69
2018-10-18T01:21:46.703Z,956.68
2018-10-18T01:24:13.115Z,956.66
2018-10-18T01:26:39.304Z,956.66
2018-10-18T01:29:05.631Z,956.70
2018-10-18T01:31:31.932Z,956.70
2018-10-18T01:33:58.240Z,956.67
2018-10-18T01:36:24.637Z,956.69
2018-10-18T01:38:50.942Z,956.64
2018-10-18T01:41:17.274Z,956.64
2018-10-18T01:43:43.579Z,956.64
2018-10-18T01:46:09.911Z,956.64
2018-10-18T01:48:36.287Z,956.58
2018-10-18T01:51:02.617Z,956.55
2018-10-18T01:53:28.913Z,956.62
2018-10-18T01:55:55.259Z,956.59
2018-10-18T01:58:21.558Z,956.57
2018-10-18T02:00:47.857Z,956.56
2018-10-18T02:03:14.232Z,956.57
2018-10-18T02:05:40.531Z,956.51
2018-10-18T02:08:06.928Z,956.53
2018-10-18T02:10:33.161Z,956.45
2018-10-18T02:12:59.469Z,956.45
2018-10-18T02:15:25.764Z,956.49
2018-10-18T02:17:52.182Z,956.42
2018-10-18T02:20:18.436Z,956.40
2018-10-18T02:22:44.778Z,956.44
2018-10-18T02:25:11.133Z,956.35
2018-10-18T02:27:37.415Z,956.39
2018-10-18T02:30:07.668Z,956.36
2018-10-18T02:32:33.925Z,956.34
2018-10-18T02:35:00.254Z,956.36
2018-10-18T02:37:26.601Z,956.37
2018-10-18T02:39:52.921Z,956.33
2018-10-18T02:42:19.287Z,956.34
2018-10-18T02:44:45.569Z,956.38
2018-10-18T02:47:11.894Z,956.42
2018-10-18T02:49:38.213Z,956.40
2018-10-18T02:52:04.549Z,956.28
2018-10-18T02:54:30.879Z,956.32
2018-10-18T02:56:57.217Z,956.36
2018-10-18T02:59:23.566Z,956.31
2018-10-18T03:01:49.865Z,956.36
2018-10-18T03:04:16.171Z,956.29
2018-10-18T03:06:42.499Z,956.21
2018-10-18T03:09:08.833Z,956.23
2018-10-18T03:11:35.203Z,956.21
2018-10-18T03:14:01.541Z,956.24
2018-10-18T03:16:27.868Z,956.17
2018-10-18T03:18:54.175Z,956.22
2018-10-18T03:21:20.521Z,956.20
2018-10-18T03:23:46.850Z,956.20
2018-10-18T03:26:13.194Z,956.14
2018-10-18T03:28:39.507Z,956.23
2018-10-18T03:31:05.821Z,956.15
2018-10-18T03:33:32.120Z,956.17
2018-10-18T03:35:58.475Z,956.13
2018-10-18T03:38:24.781Z,956.17
2018-10-18T03:40:51.135Z,956.12
2018-10-18T03:43:17.456Z,956.08
2018-10-18T03:45:43.817Z,956.06
2018-10-18T03:48:10.150Z,956.02
2018-10-18T03:50:36.395Z,956.00
2018-10-18T03:53:02.743Z,956.05
2018-10-18T03:55:29.050Z,956.05
2018-10-18T03:57:55.340Z,956.11
2018-10-18T04:00:21.761Z,956.10
2018-10-18T04:02:47.996Z,956.10
2018-10-18T04:05:14.307Z,956.15
2018-10-18T04:07:40.670Z,956.14
2018-10-18T04:10:06.982Z,956.06
2018-10-18T04:12:33.365Z,956.15
2018-10-18T04:14:59.639Z,956.14
2018-10-18T04:17:25.984Z,956.10
2018-10-18T04:19:52.287Z,956.10
2018-10-18T04:22:18.620Z,956.06
2018-10-18T04:24:44.969Z,956.07
2018-10-18T04:27:11.301Z,956.13
2018-10-18T04:29:37.639Z,956.12
2018-10-18T04:32:03.942Z,956.16
2018-10-18T04:34:30.264Z,956.16
2018-10-18T04:36:56.572Z,956.15
2018-10-18T04:39:22.889Z,956.18
2018-10-18T04:41:49.237Z,956.09
2018-10-18T04:44:15.563Z,956.15
2018-10-18T04:46:41.884Z,956.19
2018-10-18T04:49:08.273Z,956.22
2018-10-18T04:51:34.560Z,956.26
2018-10-18T04:54:00.902Z,956.25
2018-10-18T04:56:27.229Z,956.20
2018-10-18T04:58:53.553Z,956.23
2018-10-18T05:01:19.986Z,956.23
2018-10-18T05:03:46.156Z,956.28
2018-10-18T05:06:12.490Z,956.26
2018-10-18T05:08:38.800Z,956.26
2018-10-18T05:11:05.146Z,956.24
2018-10-18T05:13:31.461Z,956.28
2018-10-18T05:15:57.808Z,956.34
2018-10-18T05:18:24.107Z,956.33
2018-10-18T05:20:50.399Z,956.40
2018-10-18T05:23:16.725Z,956.37
2018-10-18T05:25:43.101Z,956.35
2018-10-18T05:28:09.425Z,956.39
2018-10-18T05:30:35.745Z,956.36
2018-10-18T05:33:02.056Z,956.42
2018-10-18T05:35:28.367Z,956.36
2018-10-18T05:37:54.691Z,956.38
2018-10-18T05:40:21.017Z,956.41
2018-10-18T05:42:47.345Z,956.39
2018-10-18T05:45:13.651Z,956.42
2018-10-18T05:47:39.955Z,956.43
2018-10-18T05:50:06.260Z,956.44
2018-10-18T05:52:32.564Z,956.52
2018-10-18T05:54:58.896Z,956.53
2018-10-18T05:57:25.210Z,956.49
2018-10-18T05:59:51.547Z,956.60
2018-10-18T06:02:17.851Z,956.61
2018-10-18T06:04:44.148Z,956.64
2018-10-18T06:07:10.574Z,956.61
2018-10-18T06:09:36.752Z,956.67
2018-10-18T06:12:03.053Z,956.64
2018-10-18T06:14:29.355Z,956.63
2018-10-18T06:16:55.713Z,956.61
2018-10-18T06:19:22.041Z,956.58
2018-10-18T06:21:48.380Z,956.56
2018-10-18T06:24:14.710Z,956.55
2018-10-18T06:26:41.036Z,956.58
2018-10-18T06:29:07.410Z,956.56
2018-10-18T06:31:33.646Z,956.57
2018-10-18T06:33:59.973Z,956.52
2018-10-18T06:36:26.271Z,956.56
2018-10-18T06:38:52.598Z,956.54
2018-10-18T06:41:18.967Z,956.51
2018-10-18T06:43:45.199Z,956.48
2018-10-18T06:46:11.574Z,956.41
2018-10-18T06:48:37.899Z,956.43
2018-10-18T06:51:04.205Z,956.46
2018-10-18T06:53:30.557Z,956.45
2018-10-18T06:55:56.860Z,956.54
2018-10-18T06:58:23.189Z,956.46
2018-10-18T07:00:49.516Z,956.46
2018-10-18T07:03:15.816Z,956.40
2018-10-18T07:05:42.149Z,956.42
2018-10-18T07:08:08.483Z,956.42
2018-10-18T07:10:34.780Z,956.36
2018-10-18T07:13:01.103Z,956.34
2018-10-18T07:15:27.431Z,956.34
2018-10-18T07:17:53.742Z,956.35
2018-10-18T07:20:20.041Z,956.30
2018-10-18T07:22:46.345Z,956.26
2018-10-18T07:25:12.663Z,956.25
2018-10-18T07:27:38.982Z,956.28
2018-10-18T07:30:05.325Z,956.27
2018-10-18T07:32:31.584Z,956.24
2018-10-18T07:34:57.965Z,956.24
2018-10-18T07:37:24.252Z,956.17
2018-10-18T07:39:50.581Z,956.19
2018-10-18T07:42:16.978Z,956.16
2018-10-18T07:44:43.216Z,956.15
2018-10-18T07:47:09.541Z,956.10
2018-10-18T07:49:35.872Z,956.08
2018-10-18T07:52:02.172Z,956.05
2018-10-18T07:54:28.481Z,956.09
2018-10-18T07:56:54.781Z,956.09
2018-10-18T07:59:21.110Z,956.03
2018-10-18T08:01:47.418Z,955.98
2018-10-18T08:04:13.752Z,956.00
2018-10-18T08:06:40.053Z,956.02
2018-10-18T08:09:06.366Z,955.95
2018-10-18T08:11:32.695Z,955.99
2018-10-18T08:13:59.021Z,955.95
2018-10-18T08:16:25.332Z,955.92
2018-10-18T08:18:51.660Z,955.93
2018-10-18T08:21:17.942Z,955.93
2018-10-18T08:23:44.270Z,955.89
2018-10-18T08:26:10.568Z,955.93
2018-10-18T08:28:36.896Z,955.97
2018-10-18T08:31:03.265Z,955.95
2018-10-18T08:33:29.587Z,955.92
2018-10-18T08:35:55.928Z,955.91
2018-10-18T08:38:22.273Z,955.91
2018-10-18T08:40:48.645Z,955.93
2018-10-18T08:43:14.982Z,955.90
2018-10-18T08:45:41.248Z,955.92
2018-10-18T08:48:07.576Z,955.84
2018-10-18T08:50:33.945Z,955.81
2018-10-18T08:53:00.249Z,955.83
2018-10-18T08:55:26.607Z,955.87
2018-10-18T08:57:52.911Z,955.86
2018-10-18T09:00:19.225Z,955.90
2018-10-18T09:02:45.569Z,955.90
2018-10-18T09:05:11.874Z,955.86
2018-10-18T09:07:38.181Z,955.83
2018-10-18T09:10:04.717Z,955.86
2018-10-18T09:12:30.805Z,955.83
2018-10-18T09:14:57.108Z,955.90
2018-10-18T09:17:23.448Z,955.89
2018-10-18T09:19:49.784Z,955.83
2018-10-18T09:22:16.115Z,955.84
2018-10-18T09:24:42.480Z,955.79
2018-10-18T09:27:08.857Z,955.75
2018-10-18T09:29:35.214Z,955.70
2018-10-18T09:32:01.544Z,955.65
2018-10-18T09:34:27.912Z,955.61
2018-10-18T09:36:54.289Z,955.56
2018-10-18T09:39:20.653Z,955.52
2018-10-18T09:41:46.952Z,955.55
2018-10-18T09:44:13.322Z,955.54
2018-10-18T09:46:39.643Z,955.49
2018-10-18T09:49:06.080Z,955.48
2018-10-18T09:51:32.319Z,955.39
2018-10-18T09:53:58.661Z,955.41
2018-10-18T09:56:24.968Z,955.25
2018-10-18T09:58:51.273Z,955.22
2018-10-18T10:01:17.733Z,955.19
2018-10-18T10:03:43.924Z,955.18
2018-10-18T10:06:10.234Z,955.19
2018-10-18T10:08:36.564Z,955.07
2018-10-18T10:11:02.895Z,955.08
2018-10-18T10:13:29.332Z,955.02
2018-10-18T10:15:55.507Z,955.01
2018-10-18T10:18:21.928Z,955.02
2018-10-18T10:20:48.127Z,954.99
2018-10-18T10:23:14.523Z,955.10
2018-10-18T10:25:40.815Z,955.01
2018-10-18T10:28:07.173Z,954.87
2018-10-18T10:30:33.485Z,954.87
2018-10-18T10:32:59.842Z,954.84
2018-10-18T10:35:26.194Z,954.86
2018-10-18T10:37:52.496Z,954.70
2018-10-18T10:40:18.891Z,954.72
2018-10-18T10:42:45.212Z,954.63
2018-10-18T10:45:11.628Z,954.64
2018-10-18T10:47:37.880Z,954.57
2018-10-18T10:50:04.237Z,954.52
2018-10-18T10:52:30.599Z,954.59
2018-10-18T10:54:56.927Z,954.53
2018-10-18T10:57:23.228Z,954.45
2018-10-18T10:59:49.557Z,954.49
2018-10-18T11:02:15.925Z,954.46
2018-10-18T11:04:42.172Z,954.37
2018-10-18T11:07:08.480Z,954.33
2018-10-18T11:09:34.890Z,954.30
2018-10-18T11:12:01.256Z,954.22
2018-10-18T11:14:27.539Z,954.24
2018-10-18T11:16:53.903Z,954.27
2018-10-18T11:19:20.168Z,954.18
2018-10-18T11:21:46.488Z,954.17
2018-10-18T11:24:12.902Z,954.15
2018-10-18T11:26:39.136Z,954.10
2018-10-18T11:29:05.480Z,954.08
2018-10-18T11:31:31.784Z,954.04
2018-10-18T11:33:58.153Z,953.98
2018-10-18T11:36:24.479Z,954.00
2018-10-18T11:38:50.808Z,953.97
2018-10-18T11:41:17.133Z,954.02
2018-10-18T11:43:43.457Z,953.95
2018-10-18T11:46:09.776Z,953.91
2018-10-18T11:48:36.110Z,953.88
2018-10-18T11:51:02.439Z,953.87
2018-10-18T11:53:28.779Z,953.82
2018-10-18T11:55:55.115Z,953.80
2018-10-18T11:58:21.423Z,953.84
2018-10-18T12:00:47.804Z,953.75
2018-10-18T12:03:14.200Z,953.79
2018-10-18T12:05:40.466Z,953.77
2018-10-18T12:08:06.804Z,953.66
2018-10-18T12:10:33.112Z,953.72
2018-10-18T12:12:59.432Z,953.74
2018-10-18T12:15:25.762Z,953.65
2018-10-18T12:17:52.083Z,953.67
2018-10-18T12:20:18.470Z,953.66
2018-10-18T12:22:44.783Z,953.65
2018-10-18T12:25:11.105Z,953.63
2018-10-18T12:27:37.441Z,953.59
2018-10-18T12:30:03.752Z,953.64
2018-10-18T12:32:30.081Z,953.60
2018-10-18T12:34:56.508Z,953.51
2018-10-18T12:37:22.769Z,953.49
2018-10-18T12:39:49.095Z,953.57
2018-10-18T12:42:15.413Z,953.60
2018-10-18T12:44:41.734Z,953.52
2018-10-18T12:47:08.067Z,953.50
2018-10-18T12:49:34.385Z,953.43
2018-10-18T12:52:00.702Z,953.42
2018-10-18T12:54:27.100Z,953.43
2018-10-18T12:56:53.429Z,953.51
2018-10-18T12:59:19.769Z,953.46
2018-10-18T13:01:46.117Z,953.35
2018-10-18T13:04:12.418Z,953.43
2018-10-18T13:06:38.749Z,953.44
2018-10-18T13:09:05.126Z,953.43
2018-10-18T13:11:31.418Z,953.43
2018-10-18T13:13:57.804Z,953.47
2018-10-18T13:16:24.126Z,953.50
2018-10-18T13:18:50.448Z,953.46
2018-10-18T13:21:16.816Z,953.45
2018-10-18T13:23:43.128Z,953.47
2018-10-18T13:26:09.489Z,953.45
2018-10-18T13:28:35.784Z,953.47
2018-10-18T13:31:02.113Z,953.48
2018-10-18T13:33:28.453Z,953.42
2018-10-18T13:35:54.776Z,953.52
2018-10-18T13:38:21.098Z,953.47
2018-10-18T13:40:47.490Z,953.48
2018-10-18T13:43:13.752Z,953.48
2018-10-18T13:45:40.073Z,953.42
2018-10-18T13:48:06.498Z,953.40
2018-10-18T13:50:32.734Z,953.39
2018-10-18T13:52:59.065Z,953.45
2018-10-18T13:55:25.394Z,953.39
2018-10-18T13:57:51.729Z,953.43
2018-10-18T14:00:18.149Z,953.42
2018-10-18T14:02:44.366Z,953.39
2018-10-18T14:05:10.786Z,953.43
2018-10-18T14:07:37.050Z,953.45
2018-10-18T14:10:03.366Z,953.44
2018-10-18T14:12:29.691Z,953.53
2018-10-18T14:14:56.043Z,953.47
2018-10-18T14:17:22.529Z,953.43
2018-10-18T14:19:48.738Z,953.50
2018-10-18T14:22:15.055Z,953.45
2018-10-18T14:24:41.383Z,953.34
2018-10-18T14:27:07.707Z,953.47
2018-10-18T14:29:34.024Z,953.41
2018-10-18T14:32:00.400Z,953.47
2018-10-18T14:34:26.772Z,953.46
2018-10-18T14:36:53.104Z,953.44
2018-10-18T14:39:19.431Z,953.45
2018-10-18T14:41:45.750Z,953.41
2018-10-18T14:44:12.129Z,953.54
2018-10-18T14:46:38.382Z,953.50
2018-10-18T14:49:04.693Z,953.51
2018-10-18T14:51:31.069Z,953.51
2018-10-18T14:53:57.361Z,953.49
2018-10-18T14:56:23.691Z,953.46
2018-10-18T14:58:50.024Z,953.52
2018-10-18T15:01:16.348Z,953.52
2018-10-18T15:03:42.723Z,953.54
2018-10-18T15:06:09.056Z,953.52
2018-10-18T15:08:35.378Z,953.55
2018-10-18T15:11:01.722Z,953.52
2018-10-18T15:13:28.015Z,953.54
2018-10-18T15:15:54.361Z,953.56
2018-10-18T15:18:20.731Z,953.56
2018-10-18T15:20:47.097Z,953.57
2018-10-18T15:23:13.473Z,953.51
2018-10-18T15:25:40.119Z,953.52
2018-10-18T15:28:06.110Z,953.48
2018-10-18T15:30:32.470Z,953.50
2018-10-18T15:32:58.763Z,953.63
2018-10-18T15:35:25.078Z,953.64
2018-10-18T15:37:51.439Z,953.71
2018-10-18T15:40:17.719Z,953.68
2018-10-18T15:42:44.039Z,953.70
2018-10-18T15:45:10.401Z,953.67
2018-10-18T15:47:36.757Z,953.77
2018-10-18T15:50:03.019Z,953.78
2018-10-18T15:52:29.345Z,953.77
2018-10-18T15:54:55.670Z,953.77
2018-10-18T15:57:21.998Z,953.83
2018-10-18T15:59:48.314Z,953.85
2018-10-18T16:02:14.649Z,953.83
2018-10-18T16:04:41.011Z,953.93
2018-10-18T16:07:07.308Z,953.93
2018-10-18T16:09:33.634Z,954.07
2018-10-18T16:12:00.017Z,954.08
2018-10-18T16:14:26.419Z,954.07
2018-10-18T16:16:52.761Z,954.07
2018-10-18T16:19:19.079Z,954.04
2018-10-18T16:21:45.432Z,954.05
2018-10-18T16:24:11.794Z,954.15
2018-10-18T16:26:38.138Z,954.15
2018-10-18T16:29:04.459Z,954.12
2018-10-18T16:31:30.780Z,954.16
2018-10-18T16:33:57.191Z,954.22
2018-10-18T16:36:23.423Z,954.15
2018-10-18T16:38:49.752Z,954.25
2018-10-18T16:41:16.410Z,954.25
2018-10-18T16:43:42.438Z,954.28
2018-10-18T16:46:08.888Z,954.27
2018-10-18T16:48:35.108Z,954.30
2018-10-18T16:51:01.465Z,954.30
2018-10-18T16:53:27.768Z,954.33
2018-10-18T16:55:54.129Z,954.37
2018-10-18T16:58:20.431Z,954.32
2018-10-18T17:00:46.762Z,954.33
2018-10-18T17:03:13.083Z,954.37
2018-10-18T17:05:39.413Z,954.36
2018-10-18T17:08:05.796Z,954.37
2018-10-18T17:10:32.072Z,954.49
2018-10-18T17:12:58.406Z,954.41
2018-10-18T17:15:24.743Z,954.41
2018-10-18T17:17:51.104Z,954.49
2018-10-18T17:20:17.558Z,954.43
2018-10-18T17:22:43.762Z,954.42
2018-10-18T17:25:10.125Z,954.41
2018-10-18T17:27:36.455Z,954.51
2018-10-18T17:30:02.778Z,954.43
2018-10-18T17:32:29.092Z,954.56
2018-10-18T17:34:55.431Z,954.47
2018-10-18T17:37:21.927Z,954.52
2018-10-18T17:39:48.305Z,954.58
2018-10-18T17:42:14.696Z,954.60
2018-10-18T17:44:41.009Z,954.66
2018-10-18T17:47:07.318Z,954.61
2018-10-18T17:49:33.726Z,954.64
2018-10-18T17:52:00.062Z,954.75
2018-10-18T17:54:26.335Z,954.69
2018-10-18T17:56:52.714Z,954.73
2018-10-18T17:59:19.037Z,954.76
2018-10-18T18:01:45.382Z,954.74
2018-10-18T18:04:11.735Z,954.71
2018-10-18T18:06:38.208Z,954.80
2018-10-18T18:09:04.389Z,954.76
2018-10-18T18:11:30.750Z,954.80
2018-10-18T18:13:57.085Z,954.78
2018-10-18T18:16:23.413Z,954.81
2018-10-18T18:18:49.802Z,954.75
2018-10-18T18:21:16.135Z,954.79
2018-10-18T18:23:42.469Z,954.80
2018-10-18T18:26:08.823Z,954.82
2018-10-18T18:28:35.155Z,954.86
2018-10-18T18:31:01.508Z,954.87
2018-10-18T18:33:27.866Z,954.93
2018-10-18T18:35:54.193Z,954.90
2018-10-18T18:38:20.513Z,954.90
2018-10-18T18:40:46.854Z,954.94
2018-10-18T18:43:13.188Z,955.01
2018-10-18T18:45:39.910Z,955.06
2018-10-18T18:48:06.198Z,955.03
2018-10-18T18:50:32.519Z,955.12
2018-10-18T18:52:58.877Z,955.12
2018-10-18T18:55:25.155Z,955.09
2018-10-18T18:57:51.474Z,955.12
2018-10-18T19:00:17.860Z,955.18
2018-10-18T19:02:44.159Z,955.16
2018-10-18T19:05:10.475Z,955.20
2018-10-18T19:07:36.831Z,955.17
2018-10-18T19:10:03.168Z,955.23
2018-10-18T19:12:29.492Z,955.24
2018-10-18T19:14:55.863Z,955.35
2018-10-18T19:17:22.189Z,955.31
2018-10-18T19:19:48.529Z,955.35
2018-10-18T19:22:14.901Z,955.33
2018-10-18T19:24:41.244Z,955.37
2018-10-18T19:27:07.576Z,955.38
2018-10-18T19:29:33.895Z,955.40
2018-10-18T19:32:00.242Z,955.42
2018-10-18T19:34:26.584Z,955.47
2018-10-18T19:36:52.917Z,955.48
2018-10-18T19:39:19.290Z,955.45
2018-10-18T19:41:45.614Z,955.48
2018-10-18T19:44:12.035Z,955.51
2018-10-18T19:46:38.447Z,955.52
2018-10-18T19:49:04.740Z,955.56
2018-10-18T19:51:31.076Z,955.55
2018-10-18T19:53:57.409Z,955.59
2018-10-18T19:56:23.745Z,955.57
2018-10-18T19:58:50.086Z,955.56
2018-10-18T20:01:16.445Z,955.54
2018-10-18T20:03:42.785Z,955.54
2018-10-18T20:06:09.121Z,955.50
2018-10-18T20:08:35.457Z,955.55
2018-10-18T20:11:01.808Z,955.52
2018-10-18T20:13:28.130Z,955.52
2018-10-18T20:15:54.510Z,955.55
2018-10-18T20:18:20.852Z,955.50
2018-10-18T20:20:47.169Z,955.49
2018-10-18T20:23:13.497Z,955.47
2018-10-18T20:25:39.939Z,955.55
2018-10-18T20:28:06.122Z,955.51
2018-10-18T20:30:32.480Z,955.42
2018-10-18T20:32:58.865Z,955.43
2018-10-18T20:35:25.174Z,955.50
2018-10-18T20:37:51.487Z,955.48
2018-10-18T20:40:17.792Z,955.44
2018-10-18T20:42:44.137Z,955.43
2018-10-18T20:45:10.537Z,955.42
2018-10-18T20:47:36.893Z,955.45
2018-10-18T20:50:03.118Z,955.32
2018-10-18T20:52:29.508Z,955.49
2018-10-18T20:54:55.808Z,955.51
2018-10-18T20:57:22.136Z,955.48
2018-10-18T20:59:48.463Z,955.50
2018-10-18T21:02:14.823Z,955.45
2018-10-18T21:04:41.164Z,955.43
2018-10-18T21:07:07.491Z,955.45
2018-10-18T21:09:33.888Z,955.49
2018-10-18T21:12:00.244Z,955.41
2018-10-18T21:14:26.546Z,955.53
2018-10-18T21:16:52.902Z,955.41
2018-10-18T21:19:19.198Z,955.42
2018-10-18T21:21:45.614Z,955.41
2018-10-18T21:24:11.855Z,955.34
2018-10-18T21:26:38.180Z,955.41
2018-10-18T21:29:04.562Z,955.41
2018-10-18T21:31:30.881Z,955.43
2018-10-18T21:33:57.318Z,955.39
2018-10-18T21:36:23.578Z,955.40
2018-10-18T21:38:49.893Z,955.41
2018-10-18T21:41:16.227Z,955.43
2018-10-18T21:43:42.561Z,955.43
2018-10-18T21:46:08.889Z,955.52
2018-10-18T21:48:35.214Z,955.41
2018-10-18T21:51:01.600Z,955.50
2018-10-18T21:53:27.873Z,955.52
2018-10-18T21:55:54.197Z,955.48
2018-10-18T21:58:20.562Z,955.56
2018-10-18T22:00:46.905Z,955.54
2018-10-18T22:03:13.318Z,955.49
2018-10-18T22:05:39.572Z,955.44
2018-10-18T22:08:05.885Z,955.50
2018-10-18T22:10:32.217Z,955.52
2018-10-18T22:12:58.558Z,955.49
2018-10-18T22:15:24.923Z,955.50
2018-10-18T22:17:51.207Z,955.49
2018-10-18T22:20:17.534Z,955.49
2018-10-18T22:22:43.841Z,955.51
2018-10-18T22:25:10.155Z,955.48
2018-10-18T22:27:36.498Z,955.58
2018-10-18T22:30:02.840Z,955.53
2018-10-18T22:32:29.141Z,955.55
2018-10-18T22:34:55.484Z,955.58
2018-10-18T22:37:21.836Z,955.54
2018-10-18T22:39:48.093Z,955.54
2018-10-18T22:42:14.445Z,955.54
2018-10-18T22:44:40.812Z,955.54
2018-10-18T22:47:07.186Z,955.56
2018-10-18T22:49:33.482Z,955.53
2018-10-18T22:51:59.786Z,955.56
2018-10-18T22:54:26.133Z,955.59
2018-10-18T22:56:52.457Z,955.58
2018-10-18T22:59:18.828Z,955.56
2018-10-18T23:01:45.129Z,955.57
2018-10-18T23:04:11.497Z,955.58
2018-10-18T23:06:37.807Z,955.63
2018-10-18T23:09:04.156Z,955.68
2018-10-18T23:11:30.511Z,955.69
2018-10-18T23:13:56.808Z,955.66
2018-10-18T23:16:23.143Z,955.72
2018-10-18T23:18:49.439Z,955.66
2018-10-18T23:21:15.810Z,955.63
2018-10-18T23:23:42.096Z,955.66
2018-10-18T23:26:08.423Z,955.57
2018-10-18T23:28:34.754Z,955.65
2018-10-18T23:31:01.059Z,955.67
2018-10-18T23:33:27.363Z,955.67
2018-10-18T23:35:53.675Z,955.65
2018-10-18T23:38:19.985Z,955.64
2018-10-18T23:40:46.314Z,955.59
2018-10-18T23:43:12.629Z,955.64
2018-10-18T23:45:38.963Z,955.60
2018-10-18T23:48:05.295Z,955.57
2018-10-18T23:50:31.593Z,955.60
2018-10-18T23:52:57.934Z,955.58
2018-10-18T23:55:24.239Z,955.63
2018-10-18T23:57:50.582Z,955.55
